Portada
METAR-TAF:

METAR-TAF

Aeropuertos :

Aeropuerto Internacional Roman Tmetuchl

Koror, Babeldaob, Palaos

latitud: 07-22N, longitud: 134-32E, altitud: 54 m

Observación

El informe se hizo hace 29 minutos, a las 10:50 UTC
Viento 3 kt del este-noreste
Temperatura 26°C
Humedad 94%
Presión 1009 hPa
Visibilidad: 22.5 km
Nubes dispersas a una altura de 1600 ft
Cielo nuboso a una altura de 11000 ft
Cielo nuboso a una altura de 29000 ft

METAR: PTRO 081050Z 06003KT 14SM SCT016 BKN110 BKN290 26/25 A2979

Hora: 20:19 (11:19 UTC)

Pronóstico

El informe se hizo hace 5 horas y 24 minutos, a las 05:55 UTC
Pronóstico válido del 08 a las 06 UTC al 09 a las 06 UTC
Viento 11 kt del este
Visibilidad: 10 km
Nubes dispersas a una altura de 1600 ft
Cielo nuboso a una altura de 12000 ft
chaparrones en las proximidades

TAF: PTRO 080555Z 0806/0906 09011KT P6SM VCSH SCT016 BKN120

Observaciones y pronósticos meteorológicos de más de 4000 aeropuertos (mensajes METAR y TAF).

Los puntos amarillos y rojos representan las estaciones disponibles.

Ponga el ratón en el punto deseado para ver el nombre de la estación.

Haga clic para ver las observaciones y los pronósticos meteorológicos.

Para cambiar el mapa : haga clic en los botones verdes con una cruz de color negro para hacer un zoom, en el botón verde con un guión para alejar o en las flechas verdes para mapas adyacentes.


METAR-TAF: